createdAt,value
2022-12-13T00:01:28.494Z,15.18
2022-12-13T00:03:57.053Z,15.10
2022-12-13T00:06:24.504Z,14.68
2022-12-13T00:08:52.118Z,14.35
2022-12-13T00:11:19.579Z,14.27
2022-12-13T00:13:48.143Z,12.20
2022-12-13T00:16:22.515Z,13.35
2022-12-13T00:18:51.273Z,13.18
2022-12-13T00:21:20.967Z,13.25
2022-12-13T00:23:48.400Z,11.38
2022-12-13T00:26:20.955Z,12.90
2022-12-13T00:28:49.531Z,11.85
2022-12-13T00:34:05.079Z,12.10
2022-12-13T00:36:32.180Z,12.05
2022-12-13T00:39:02.356Z,12.60
2022-12-13T00:41:36.057Z,12.10
2022-12-13T00:44:04.696Z,11.63
2022-12-13T00:46:32.314Z,11.98
2022-12-13T00:49:01.246Z,12.63
2022-12-13T00:51:30.557Z,11.38
2022-12-13T00:53:58.530Z,12.15
2022-12-13T00:56:27.881Z,11.45
2022-12-13T00:58:55.848Z,11.68
2022-12-13T01:01:25.996Z,11.27
2022-12-13T01:03:58.861Z,11.52
2022-12-13T01:06:30.298Z,11.98
2022-12-13T01:08:57.300Z,11.65
2022-12-13T01:11:24.471Z,11.88
2022-12-13T01:13:51.440Z,12.40
2022-12-13T01:16:18.838Z,14.00
2022-12-13T01:18:46.104Z,13.88
2022-12-13T01:21:17.267Z,13.75
2022-12-13T01:23:45.130Z,13.35
2022-12-13T01:26:14.765Z,15.13
2022-12-13T01:28:42.139Z,13.75
2022-12-13T01:31:14.610Z,12.80
2022-12-13T01:33:41.760Z,11.02
2022-12-13T01:36:14.020Z,12.15
2022-12-13T01:38:40.950Z,10.85
2022-12-13T01:41:17.161Z,11.80
2022-12-13T01:43:48.118Z,10.70
2022-12-13T01:46:17.558Z,9.73
2022-12-13T01:48:47.667Z,10.93
2022-12-13T01:51:19.306Z,9.75
2022-12-13T01:53:49.374Z,10.18
2022-12-13T01:56:22.638Z,10.70
2022-12-13T01:58:52.274Z,10.27
2022-12-13T02:01:19.620Z,9.63
2022-12-13T02:03:46.655Z,10.85
2022-12-13T02:06:19.534Z,10.68
2022-12-13T02:08:47.000Z,7.88
2022-12-13T02:11:14.679Z,9.73
2022-12-13T02:13:41.701Z,9.93
2022-12-13T02:16:27.912Z,9.10
2022-12-13T02:19:39.266Z,9.90
2022-12-13T02:22:31.032Z,9.93
2022-12-13T02:25:08.547Z,8.85
2022-12-13T02:28:00.632Z,10.18
2022-12-13T02:30:39.273Z,9.57
2022-12-13T02:34:01.441Z,9.07
2022-12-13T02:36:36.395Z,8.77
2022-12-13T02:39:53.860Z,8.77
2022-12-13T02:42:34.862Z,10.30
2022-12-13T02:45:20.058Z,8.82
2022-12-13T02:47:49.944Z,9.35
2022-12-13T02:50:17.024Z,9.07
2022-12-13T02:52:46.752Z,9.82
2022-12-13T02:55:16.502Z,10.13
2022-12-13T02:57:45.308Z,10.13
2022-12-13T03:00:19.494Z,9.55
2022-12-13T03:03:31.866Z,9.73
2022-12-13T03:06:33.597Z,12.50
2022-12-13T03:09:16.078Z,13.75
2022-12-13T03:12:33.332Z,13.70
2022-12-13T03:15:21.155Z,15.30
2022-12-13T03:17:53.741Z,17.63
2022-12-13T03:20:25.351Z,13.82
2022-12-13T03:22:53.259Z,13.32
2022-12-13T03:25:32.005Z,12.95
2022-12-13T03:28:02.075Z,18.80
2022-12-13T03:30:31.830Z,18.65
2022-12-13T03:32:59.135Z,18.70
2022-12-13T03:35:34.249Z,16.30
2022-12-13T03:38:02.366Z,16.90
2022-12-13T03:40:30.558Z,16.75
2022-12-13T03:42:57.720Z,16.92
2022-12-13T03:45:24.743Z,13.82
2022-12-13T03:47:51.727Z,11.98
2022-12-13T03:50:26.148Z,10.32
2022-12-13T03:53:02.133Z,9.40
2022-12-13T03:55:29.992Z,9.82
2022-12-13T03:57:56.967Z,8.93
2022-12-13T04:00:23.932Z,8.80
2022-12-13T04:02:51.004Z,9.20
2022-12-13T04:05:18.555Z,9.05
2022-12-13T04:07:48.175Z,8.23
2022-12-13T04:10:26.305Z,7.88
2022-12-13T04:13:13.158Z,8.65
2022-12-13T04:15:40.774Z,8.63
2022-12-13T04:18:07.810Z,8.43
2022-12-13T04:20:34.789Z,8.07
2022-12-13T04:23:10.153Z,8.85
2022-12-13T04:25:38.831Z,8.75
2022-12-13T04:28:06.669Z,9.07
2022-12-13T04:30:34.529Z,8.30
2022-12-13T04:33:01.484Z,8.50
2022-12-13T04:35:28.474Z,8.68
2022-12-13T04:37:57.041Z,9.07
2022-12-13T04:40:24.353Z,8.68
2022-12-13T04:42:54.071Z,9.13
2022-12-13T04:45:22.947Z,9.65
2022-12-13T04:47:50.255Z,10.70
2022-12-13T04:50:17.381Z,12.60
2022-12-13T04:52:45.041Z,13.95
2022-12-13T04:55:12.515Z,13.35
2022-12-13T04:57:40.038Z,11.32
2022-12-13T05:00:09.975Z,11.32
2022-12-13T05:02:37.191Z,10.95
2022-12-13T05:05:04.293Z,9.20
2022-12-13T05:07:31.486Z,9.45
2022-12-13T05:09:58.414Z,8.93
2022-12-13T05:12:25.343Z,8.57
2022-12-13T05:14:53.155Z,8.30
2022-12-13T05:17:21.179Z,8.40
2022-12-13T05:19:48.168Z,10.25
2022-12-13T05:22:20.804Z,8.90
2022-12-13T05:24:48.521Z,9.07
2022-12-13T05:27:23.753Z,9.02
2022-12-13T05:30:02.118Z,9.00
2022-12-13T05:32:43.216Z,7.72
2022-12-13T05:35:22.721Z,8.52
2022-12-13T05:37:55.176Z,8.73
2022-12-13T05:40:27.170Z,8.68
2022-12-13T05:43:01.465Z,7.70
2022-12-13T05:45:30.960Z,8.65
2022-12-13T05:47:58.174Z,8.77
2022-12-13T05:50:25.783Z,9.18
2022-12-13T05:52:52.767Z,8.90
2022-12-13T05:55:20.128Z,9.05
2022-12-13T05:57:50.123Z,8.95
2022-12-13T06:00:29.888Z,12.85
2022-12-13T06:03:00.689Z,14.82
2022-12-13T06:05:29.534Z,16.17
2022-12-13T06:07:57.985Z,21.33
2022-12-13T06:10:34.138Z,20.83
2022-12-13T06:13:21.929Z,19.98
2022-12-13T06:16:01.425Z,17.38
2022-12-13T06:18:31.694Z,15.10
2022-12-13T06:21:04.515Z,19.42
2022-12-13T06:23:32.925Z,12.65
2022-12-13T06:26:02.461Z,15.20
2022-12-13T06:28:29.603Z,16.42
2022-12-13T06:31:00.396Z,14.75
2022-12-13T06:33:27.450Z,13.32
2022-12-13T06:35:57.997Z,15.63
2022-12-13T06:38:31.398Z,19.65
2022-12-13T06:41:10.437Z,21.73
2022-12-13T06:43:37.394Z,22.00
2022-12-13T06:46:06.095Z,22.10
2022-12-13T06:48:33.658Z,22.05
2022-12-13T06:51:05.568Z,22.67
2022-12-13T06:53:34.569Z,26.23
2022-12-13T06:56:07.222Z,29.73
2022-12-13T06:58:35.241Z,29.40
2022-12-13T07:01:24.269Z,48.95
2022-12-13T07:03:54.848Z,43.80
2022-12-13T07:06:23.895Z,41.80
2022-12-13T07:08:56.149Z,42.15
2022-12-13T07:11:28.644Z,38.65
2022-12-13T07:13:56.199Z,37.20
2022-12-13T07:16:24.483Z,38.97
2022-12-13T07:19:01.277Z,39.67
2022-12-13T07:21:29.103Z,37.65
2022-12-13T07:23:56.135Z,36.75
2022-12-13T07:26:23.666Z,39.55
2022-12-13T07:28:55.145Z,39.05
2022-12-13T07:31:24.485Z,39.17
2022-12-13T07:33:51.971Z,41.63
2022-12-13T07:36:21.748Z,42.85
2022-12-13T07:38:53.989Z,67.78
2022-12-13T07:41:25.155Z,48.13
2022-12-13T07:43:55.017Z,44.45
2022-12-13T07:46:33.542Z,46.72
2022-12-13T07:49:05.379Z,44.78
2022-12-13T07:51:35.048Z,43.85
2022-12-13T07:54:06.724Z,45.55
2022-12-13T07:56:35.044Z,41.88
2022-12-13T07:59:02.163Z,42.67
2022-12-13T08:01:31.212Z,44.65
2022-12-13T08:03:58.190Z,42.63
2022-12-13T08:06:25.167Z,42.70
2022-12-13T08:08:58.580Z,40.92
2022-12-13T08:13:56.451Z,39.38
2022-12-13T08:16:27.207Z,40.22
2022-12-13T08:19:02.796Z,39.63
2022-12-13T08:21:57.356Z,40.33
2022-12-13T08:24:28.079Z,39.33
2022-12-13T08:26:57.603Z,37.78
2022-12-13T08:29:34.588Z,37.67
2022-12-13T08:32:08.628Z,38.03
2022-12-13T08:34:36.162Z,43.30
2022-12-13T08:37:04.514Z,39.90
2022-12-13T08:39:35.572Z,41.42
2022-12-13T08:42:19.005Z,42.65
2022-12-13T08:47:23.585Z,35.42
2022-12-13T08:50:03.991Z,41.58
2022-12-13T08:52:40.809Z,33.67
2022-12-13T08:55:14.404Z,34.13
2022-12-13T08:57:42.687Z,33.97
2022-12-13T09:00:12.980Z,36.97
2022-12-13T09:02:40.312Z,40.40
2022-12-13T09:05:09.305Z,48.10
2022-12-13T09:07:39.689Z,44.80
2022-12-13T09:10:26.607Z,46.58
2022-12-13T09:13:01.862Z,46.83
2022-12-13T09:15:34.672Z,47.33
2022-12-13T09:18:05.065Z,49.92
2022-12-13T09:20:40.810Z,47.90
2022-12-13T09:23:14.264Z,43.85
2022-12-13T09:26:05.511Z,41.80
2022-12-13T09:28:38.053Z,38.13
2022-12-13T09:31:16.100Z,36.83
2022-12-13T09:33:45.915Z,37.85
2022-12-13T09:36:19.481Z,33.50
2022-12-13T09:38:48.474Z,34.78
2022-12-13T09:41:33.328Z,34.30
2022-12-13T09:44:31.959Z,34.92
2022-12-13T09:47:27.095Z,36.67
2022-12-13T09:50:15.071Z,36.75
2022-12-13T09:52:45.200Z,39.25
2022-12-13T09:55:31.646Z,37.58
2022-12-13T09:58:05.408Z,38.10
2022-12-13T10:00:37.492Z,37.33
2022-12-13T10:03:04.597Z,36.63
2022-12-13T10:05:40.107Z,34.10
2022-12-13T10:08:13.033Z,32.63
2022-12-13T10:10:40.406Z,23.93
2022-12-13T10:13:28.806Z,28.55
2022-12-13T10:16:02.669Z,27.00
2022-12-13T10:18:41.220Z,27.20
2022-12-13T10:21:18.094Z,25.90
2022-12-13T10:24:22.853Z,23.73
2022-12-13T10:26:37.982Z,27.10
2022-12-13T10:29:06.561Z,28.60
2022-12-13T10:31:53.814Z,28.20
2022-12-13T10:34:24.550Z,32.75
2022-12-13T10:36:52.588Z,32.65
2022-12-13T10:39:39.921Z,31.25
2022-12-13T10:42:14.042Z,32.22
2022-12-13T10:44:50.168Z,33.17
2022-12-13T10:47:21.899Z,33.03
2022-12-13T10:49:59.146Z,32.70
2022-12-13T10:52:31.663Z,30.98
2022-12-13T10:55:03.182Z,31.80
2022-12-13T10:57:30.637Z,32.42
2022-12-13T10:59:59.167Z,30.48
2022-12-13T11:02:29.076Z,30.83
2022-12-13T11:04:58.310Z,22.70
2022-12-13T11:07:30.052Z,24.58
2022-12-13T11:10:04.904Z,27.90
2022-12-13T11:12:33.478Z,28.65
2022-12-13T11:15:04.535Z,30.00
2022-12-13T11:17:39.556Z,30.25
2022-12-13T11:20:18.360Z,29.50
2022-12-13T11:22:45.348Z,30.20
2022-12-13T11:25:29.777Z,30.85
2022-12-13T11:28:26.474Z,32.17
2022-12-13T11:31:32.031Z,32.58
2022-12-13T11:34:10.609Z,32.45
2022-12-13T11:36:50.928Z,34.40
2022-12-13T11:40:01.695Z,33.40
2022-12-13T11:42:38.585Z,33.65
2022-12-13T11:45:23.054Z,33.83
2022-12-13T11:48:03.471Z,34.90
2022-12-13T11:50:35.639Z,36.10
2022-12-13T11:53:30.228Z,35.35
2022-12-13T11:56:05.197Z,35.40
2022-12-13T11:59:02.957Z,37.38
2022-12-13T12:01:47.906Z,27.88
2022-12-13T12:04:46.539Z,26.23
2022-12-13T12:07:33.640Z,26.75
2022-12-13T12:10:29.333Z,25.52
2022-12-13T12:13:05.375Z,24.77
2022-12-13T12:15:41.849Z,24.55
2022-12-13T12:18:15.987Z,25.80
2022-12-13T12:21:05.274Z,26.48
2022-12-13T12:23:52.786Z,26.75
2022-12-13T12:26:30.204Z,25.90
2022-12-13T12:29:34.273Z,28.50
2022-12-13T12:32:01.231Z,28.83
2022-12-13T12:35:02.436Z,31.70
2022-12-13T12:38:04.508Z,29.88
2022-12-13T12:43:44.043Z,30.38
2022-12-13T12:46:29.212Z,30.70
2022-12-13T12:49:05.407Z,33.17
2022-12-13T12:52:12.927Z,32.33
2022-12-13T12:55:03.096Z,30.23
2022-12-13T12:57:33.069Z,30.10
2022-12-13T13:00:12.001Z,28.92
2022-12-13T13:03:30.480Z,29.30
2022-12-13T13:06:06.116Z,28.08
2022-12-13T13:08:43.786Z,26.63
2022-12-13T13:11:24.894Z,29.30
2022-12-13T13:14:01.395Z,26.20
2022-12-13T13:16:41.339Z,28.73
2022-12-13T13:19:31.488Z,28.08
2022-12-13T13:22:01.642Z,29.05
2022-12-13T13:24:34.750Z,28.95
2022-12-13T13:27:10.598Z,30.08
2022-12-13T13:29:43.504Z,29.95
2022-12-13T13:32:11.341Z,27.48
2022-12-13T13:34:42.460Z,27.33
2022-12-13T13:37:24.598Z,26.88
2022-12-13T13:39:58.954Z,26.65
2022-12-13T13:42:30.811Z,27.83
2022-12-13T13:45:18.989Z,27.50
2022-12-13T13:48:14.220Z,28.63
2022-12-13T13:51:09.219Z,29.15
2022-12-13T13:54:00.038Z,27.13
2022-12-13T13:56:50.292Z,24.92
2022-12-13T13:59:42.043Z,27.30
2022-12-13T14:02:39.462Z,28.60
2022-12-13T14:05:43.697Z,28.73
2022-12-13T14:11:55.816Z,28.00
2022-12-13T14:14:49.960Z,29.40
2022-12-13T14:17:36.111Z,30.88
2022-12-13T14:20:21.476Z,29.63
2022-12-13T14:22:58.881Z,31.70
2022-12-13T14:25:52.348Z,30.50
2022-12-13T14:30:57.751Z,26.98
2022-12-13T14:33:26.629Z,28.92
2022-12-13T14:35:56.031Z,29.45
2022-12-13T14:38:31.122Z,32.85
2022-12-13T14:41:02.632Z,34.45
2022-12-13T14:43:32.068Z,34.05
2022-12-13T14:46:04.588Z,34.58
2022-12-13T14:48:37.534Z,33.90
2022-12-13T14:51:04.907Z,36.60
2022-12-13T14:53:41.352Z,34.88
2022-12-13T14:56:27.637Z,39.78
2022-12-13T14:59:03.397Z,38.55
2022-12-13T15:01:33.321Z,37.47
2022-12-13T15:04:19.778Z,36.33
2022-12-13T15:07:07.013Z,36.40
2022-12-13T15:09:42.859Z,37.72
2022-12-13T15:12:25.486Z,35.47
2022-12-13T15:15:05.563Z,36.25
2022-12-13T15:17:35.874Z,35.55
2022-12-13T15:20:23.817Z,35.30
2022-12-13T15:23:04.506Z,34.30
2022-12-13T15:25:34.105Z,35.80
2022-12-13T15:28:01.232Z,34.28
2022-12-13T15:30:31.904Z,36.38
2022-12-13T15:33:17.871Z,35.03
2022-12-13T15:35:47.966Z,34.55
2022-12-13T15:38:28.262Z,34.58
2022-12-13T15:40:56.858Z,32.00
2022-12-13T15:43:33.231Z,34.42
2022-12-13T15:46:00.763Z,35.47
2022-12-13T15:48:31.848Z,32.72
2022-12-13T15:51:30.422Z,31.92
2022-12-13T15:54:21.309Z,31.65
2022-12-13T15:57:16.018Z,31.60
2022-12-13T15:59:46.105Z,30.80
2022-12-13T16:02:21.242Z,31.05
2022-12-13T16:04:48.784Z,30.30
2022-12-13T16:07:24.614Z,32.42
2022-12-13T16:09:53.805Z,32.53
2022-12-13T16:12:26.927Z,29.02
2022-12-13T16:15:09.538Z,31.10
2022-12-13T16:17:36.832Z,25.08
2022-12-13T16:20:15.883Z,30.60
2022-12-13T16:22:43.536Z,33.70
2022-12-13T16:25:18.742Z,35.55
2022-12-13T16:27:47.391Z,33.90
2022-12-13T16:30:27.333Z,33.00
2022-12-13T16:33:17.922Z,38.15
2022-12-13T16:35:41.907Z,32.17
2022-12-13T16:38:17.860Z,33.50
2022-12-13T16:40:56.539Z,34.70
2022-12-13T16:43:32.777Z,36.28
2022-12-13T16:47:15.220Z,35.70
2022-12-13T16:48:51.956Z,33.72
2022-12-13T16:51:18.980Z,34.60
2022-12-13T16:53:46.635Z,33.53
2022-12-13T16:56:14.945Z,34.05
2022-12-13T16:58:49.446Z,35.45
2022-12-13T17:01:20.428Z,35.60
2022-12-13T17:03:47.609Z,35.33
2022-12-13T17:06:16.031Z,34.97
2022-12-13T17:08:42.976Z,35.92
2022-12-13T17:11:13.309Z,38.28
2022-12-13T17:13:47.056Z,38.50
2022-12-13T17:16:14.367Z,35.92
2022-12-13T17:18:41.890Z,35.65
2022-12-13T17:21:10.290Z,35.45
2022-12-13T17:23:37.562Z,37.13
2022-12-13T17:26:10.164Z,37.78
2022-12-13T17:28:37.536Z,38.33
2022-12-13T17:31:08.711Z,43.03
2022-12-13T17:33:36.501Z,38.85
2022-12-13T17:36:08.158Z,40.10
2022-12-13T17:38:35.436Z,36.25
2022-12-13T17:41:02.553Z,36.72
2022-12-13T17:43:34.765Z,38.03
2022-12-13T17:46:08.638Z,39.72
2022-12-13T17:51:10.033Z,37.22
2022-12-13T17:53:38.909Z,40.08
2022-12-13T17:56:08.970Z,37.60
2022-12-13T17:58:36.166Z,37.47
2022-12-13T18:01:22.422Z,35.75
2022-12-13T18:03:52.748Z,38.38
2022-12-13T18:06:19.869Z,35.40
2022-12-13T18:08:47.199Z,37.90
2022-12-13T18:14:07.405Z,37.08
2022-12-13T18:16:38.547Z,32.22
2022-12-13T18:19:12.627Z,33.88
2022-12-13T18:21:40.001Z,36.47
2022-12-13T18:24:07.661Z,37.58
2022-12-13T18:26:34.903Z,35.90
2022-12-13T18:29:02.448Z,36.28
2022-12-13T18:31:29.474Z,34.80
2022-12-13T18:33:56.499Z,34.17
2022-12-13T18:36:25.030Z,34.08
2022-12-13T18:38:52.042Z,34.42
2022-12-13T18:41:22.005Z,33.13
2022-12-13T18:43:53.783Z,34.80
2022-12-13T18:46:20.737Z,34.72
2022-12-13T18:48:47.762Z,31.83
2022-12-13T18:51:14.727Z,35.05
2022-12-13T18:53:42.158Z,34.00
2022-12-13T18:56:18.259Z,34.00
2022-12-13T18:58:46.258Z,33.60
2022-12-13T19:01:13.996Z,33.50
2022-12-13T19:03:44.228Z,35.03
2022-12-13T19:06:19.758Z,33.97
2022-12-13T19:08:52.012Z,33.80
2022-12-13T19:11:19.845Z,51.47
2022-12-13T19:13:47.671Z,36.60
2022-12-13T19:16:18.551Z,36.17
2022-12-13T19:18:45.638Z,35.03
2022-12-13T19:21:16.533Z,34.28
2022-12-13T19:23:43.693Z,36.30
2022-12-13T19:26:14.062Z,35.15
2022-12-13T19:28:42.264Z,36.22
2022-12-13T19:31:11.297Z,35.60
2022-12-13T19:33:38.952Z,33.10
2022-12-13T19:36:06.550Z,33.22
2022-12-13T19:38:33.670Z,36.47
2022-12-13T19:41:05.936Z,37.33
2022-12-13T19:43:32.922Z,34.75
2022-12-13T19:46:01.076Z,35.17
2022-12-13T19:48:28.131Z,35.13
2022-12-13T19:51:02.509Z,34.80
2022-12-13T19:53:30.563Z,34.72
2022-12-13T19:55:58.545Z,33.70
2022-12-13T19:58:26.566Z,34.05
2022-12-13T20:01:00.521Z,33.90
2022-12-13T20:03:28.166Z,33.38
2022-12-13T20:05:59.962Z,34.78
2022-12-13T20:08:27.269Z,32.70
2022-12-13T20:11:08.700Z,35.63
2022-12-13T20:13:37.717Z,27.70
2022-12-13T20:16:05.895Z,33.92
2022-12-13T20:18:34.001Z,34.80
2022-12-13T20:21:14.048Z,34.30
2022-12-13T20:23:48.945Z,36.33
2022-12-13T20:26:18.635Z,36.25
2022-12-13T20:28:45.743Z,34.13
2022-12-13T20:31:15.377Z,34.75
2022-12-13T20:33:42.730Z,31.60
2022-12-13T20:36:24.117Z,32.95
2022-12-13T20:38:51.805Z,34.90
2022-12-13T20:41:18.803Z,33.08
2022-12-13T20:43:48.326Z,34.92
2022-12-13T20:46:16.016Z,34.20
2022-12-13T20:48:44.911Z,34.65
2022-12-13T20:51:14.637Z,34.47
2022-12-13T20:53:44.866Z,33.90
2022-12-13T20:56:14.948Z,32.90
2022-12-13T20:58:42.530Z,33.80
2022-12-13T21:01:18.273Z,36.83
2022-12-13T21:03:46.066Z,34.90
2022-12-13T21:06:13.628Z,36.88
2022-12-13T21:08:52.903Z,36.55
2022-12-13T21:11:28.950Z,37.47
2022-12-13T21:14:10.173Z,36.90
2022-12-13T21:16:45.165Z,40.03
2022-12-13T21:19:17.207Z,38.38
2022-12-13T21:21:44.224Z,37.20
2022-12-13T21:24:14.783Z,37.95
2022-12-13T21:26:42.136Z,39.15
2022-12-13T21:29:13.931Z,39.50
2022-12-13T21:31:43.200Z,41.88
2022-12-13T21:34:11.335Z,41.22
2022-12-13T21:36:41.378Z,39.13
2022-12-13T21:39:14.624Z,42.50
2022-12-13T21:41:42.671Z,42.50
2022-12-13T21:44:15.352Z,41.28
2022-12-13T21:49:32.143Z,46.20
2022-12-13T21:51:59.222Z,48.65
2022-12-13T21:54:26.135Z,52.05
2022-12-13T21:57:12.404Z,50.58
2022-12-13T21:59:39.363Z,51.85
2022-12-13T22:02:19.581Z,54.95
2022-12-13T22:05:04.153Z,52.83
2022-12-13T22:07:34.213Z,55.67
2022-12-13T22:10:02.347Z,54.75
2022-12-13T22:12:36.761Z,57.10
2022-12-13T22:15:06.762Z,53.28
2022-12-13T22:17:36.038Z,52.10
2022-12-13T22:20:12.183Z,47.35
2022-12-13T22:22:40.705Z,50.25
2022-12-13T22:25:09.189Z,49.55
2022-12-13T22:27:36.310Z,45.08
2022-12-13T22:30:04.559Z,42.45
2022-12-13T22:32:33.062Z,39.75
2022-12-13T22:35:00.746Z,42.72
2022-12-13T22:37:27.847Z,38.70
2022-12-13T22:39:55.106Z,40.63
2022-12-13T22:42:22.752Z,44.15
2022-12-13T22:44:49.834Z,42.10
2022-12-13T22:47:17.126Z,40.67
2022-12-13T22:49:44.790Z,40.38
2022-12-13T22:52:17.178Z,37.13
2022-12-13T22:54:44.281Z,37.47
2022-12-13T22:57:11.582Z,38.65
2022-12-13T22:59:38.913Z,38.63
2022-12-13T23:02:06.171Z,37.00
2022-12-13T23:04:33.252Z,38.53
2022-12-13T23:07:00.492Z,39.35
2022-12-13T23:09:27.438Z,35.30
2022-12-13T23:12:12.670Z,39.20
2022-12-13T23:14:39.666Z,37.03
2022-12-13T23:17:06.994Z,36.00
2022-12-13T23:19:50.363Z,39.90
2022-12-13T23:22:20.048Z,43.60
2022-12-13T23:24:47.002Z,42.03
2022-12-13T23:27:13.954Z,41.72
2022-12-13T23:29:40.993Z,42.33
2022-12-13T23:32:07.903Z,40.25
2022-12-13T23:34:34.943Z,40.13
2022-12-13T23:37:01.887Z,37.75
2022-12-13T23:39:28.981Z,41.85
2022-12-13T23:41:55.922Z,40.80
2022-12-13T23:44:23.017Z,40.65
2022-12-13T23:46:49.925Z,39.47
2022-12-13T23:49:16.869Z,39.30
2022-12-13T23:51:43.864Z,38.22
2022-12-13T23:54:16.360Z,39.08
2022-12-13T23:56:43.835Z,32.20
2022-12-13T23:59:11.274Z,37.63
